sensor_id;sensor_type;location;lat;lon;timestamp;temperature;humidity
39237;DHT22;36851;49.996;8.268;2022-08-01T00:00:00;27.10;81.40
39237;DHT22;36851;49.996;8.268;2022-08-01T00:02:30;27.00;81.70
39237;DHT22;36851;49.996;8.268;2022-08-01T00:04:58;27.10;81.80
39237;DHT22;36851;49.996;8.268;2022-08-01T00:07:26;26.90;82.10
39237;DHT22;36851;49.996;8.268;2022-08-01T00:09:53;26.80;82.10
39237;DHT22;36851;49.996;8.268;2022-08-01T00:12:21;26.90;82.00
39237;DHT22;36851;49.996;8.268;2022-08-01T00:14:48;26.90;81.90
39237;DHT22;36851;49.996;8.268;2022-08-01T00:17:15;27.00;81.80
39237;DHT22;36851;49.996;8.268;2022-08-01T00:19:42;27.00;81.70
39237;DHT22;36851;49.996;8.268;2022-08-01T00:22:09;27.00;81.70
39237;DHT22;36851;49.996;8.268;2022-08-01T00:24:36;27.00;81.70
39237;DHT22;36851;49.996;8.268;2022-08-01T00:27:03;26.90;81.90
39237;DHT22;36851;49.996;8.268;2022-08-01T00:29:30;26.90;81.70
39237;DHT22;36851;49.996;8.268;2022-08-01T00:32:18;27.00;81.70
39237;DHT22;36851;49.996;8.268;2022-08-01T00:34:45;27.00;81.80
39237;DHT22;36851;49.996;8.268;2022-08-01T00:37:12;26.90;82.80
39237;DHT22;36851;49.996;8.268;2022-08-01T00:39:42;26.90;82.40
39237;DHT22;36851;49.996;8.268;2022-08-01T00:42:09;26.90;82.10
39237;DHT22;36851;49.996;8.268;2022-08-01T00:44:37;26.90;82.10
39237;DHT22;36851;49.996;8.268;2022-08-01T00:47:05;26.90;81.90
39237;DHT22;36851;49.996;8.268;2022-08-01T00:49:32;27.00;82.00
39237;DHT22;36851;49.996;8.268;2022-08-01T00:52:00;26.90;82.00
39237;DHT22;36851;49.996;8.268;2022-08-01T00:54:27;27.00;81.90
39237;DHT22;36851;49.996;8.268;2022-08-01T00:56:54;26.90;82.10
39237;DHT22;36851;49.996;8.268;2022-08-01T00:59:22;26.90;82.10
39237;DHT22;36851;49.996;8.268;2022-08-01T01:01:51;26.90;82.30
39237;DHT22;36851;49.996;8.268;2022-08-01T01:04:19;26.90;82.20
39237;DHT22;36851;49.996;8.268;2022-08-01T01:09:47;26.80;82.70
39237;DHT22;36851;49.996;8.268;2022-08-01T01:12:30;26.80;82.90
39237;DHT22;36851;49.996;8.268;2022-08-01T01:15:06;26.80;82.70
39237;DHT22;36851;49.996;8.268;2022-08-01T01:17:48;26.70;82.80
39237;DHT22;36851;49.996;8.268;2022-08-01T01:20:19;26.80;83.00
39237;DHT22;36851;49.996;8.268;2022-08-01T01:30:33;26.70;83.10
39237;DHT22;36851;49.996;8.268;2022-08-01T01:33:02;26.60;83.20
39237;DHT22;36851;49.996;8.268;2022-08-01T01:35:31;26.60;83.30
39237;DHT22;36851;49.996;8.268;2022-08-01T01:38:07;26.60;83.20
39237;DHT22;36851;49.996;8.268;2022-08-01T01:40:36;26.60;83.20
39237;DHT22;36851;49.996;8.268;2022-08-01T01:43:03;26.80;82.70
39237;DHT22;36851;49.996;8.268;2022-08-01T01:45:31;26.80;82.90
39237;DHT22;36851;49.996;8.268;2022-08-01T01:47:58;26.80;82.60
39237;DHT22;36851;49.996;8.268;2022-08-01T01:50:26;26.80;82.40
39237;DHT22;36851;49.996;8.268;2022-08-01T01:52:54;26.90;82.30
39237;DHT22;36851;49.996;8.268;2022-08-01T01:55:22;26.90;82.40
39237;DHT22;36851;49.996;8.268;2022-08-01T01:57:50;26.80;82.30
39237;DHT22;36851;49.996;8.268;2022-08-01T02:00:18;26.80;82.50
39237;DHT22;36851;49.996;8.268;2022-08-01T02:02:45;26.70;82.80
39237;DHT22;36851;49.996;8.268;2022-08-01T02:05:13;26.70;82.80
39237;DHT22;36851;49.996;8.268;2022-08-01T02:07:40;26.70;82.90
39237;DHT22;36851;49.996;8.268;2022-08-01T02:10:09;26.70;83.00
39237;DHT22;36851;49.996;8.268;2022-08-01T02:12:37;26.70;83.10
39237;DHT22;36851;49.996;8.268;2022-08-01T02:15:06;26.60;83.10
39237;DHT22;36851;49.996;8.268;2022-08-01T02:17:33;26.60;83.40
39237;DHT22;36851;49.996;8.268;2022-08-01T02:20:04;26.50;83.50
39237;DHT22;36851;49.996;8.268;2022-08-01T02:22:36;26.50;83.60
39237;DHT22;36851;49.996;8.268;2022-08-01T02:27:36;26.60;83.20
39237;DHT22;36851;49.996;8.268;2022-08-01T02:30:04;26.60;83.20
39237;DHT22;36851;49.996;8.268;2022-08-01T02:32:53;26.70;83.10
39237;DHT22;36851;49.996;8.268;2022-08-01T02:35:30;26.60;83.00
39237;DHT22;36851;49.996;8.268;2022-08-01T02:38:00;26.70;83.10
39237;DHT22;36851;49.996;8.268;2022-08-01T02:40:28;26.60;83.20
39237;DHT22;36851;49.996;8.268;2022-08-01T02:42:56;26.60;83.00
39237;DHT22;36851;49.996;8.268;2022-08-01T02:45:24;26.60;83.00
39237;DHT22;36851;49.996;8.268;2022-08-01T02:47:54;26.70;83.00
39237;DHT22;36851;49.996;8.268;2022-08-01T02:50:22;26.60;83.00
39237;DHT22;36851;49.996;8.268;2022-08-01T02:52:50;26.60;83.10
39237;DHT22;36851;49.996;8.268;2022-08-01T02:55:19;26.60;82.90
39237;DHT22;36851;49.996;8.268;2022-08-01T02:57:46;26.60;82.80
39237;DHT22;36851;49.996;8.268;2022-08-01T03:00:18;26.70;82.70
39237;DHT22;36851;49.996;8.268;2022-08-01T03:02:51;26.60;82.80
39237;DHT22;36851;49.996;8.268;2022-08-01T03:05:20;26.60;82.90
39237;DHT22;36851;49.996;8.268;2022-08-01T03:07:48;26.60;82.80
39237;DHT22;36851;49.996;8.268;2022-08-01T03:10:15;26.60;83.00
39237;DHT22;36851;49.996;8.268;2022-08-01T03:12:43;26.60;82.80
39237;DHT22;36851;49.996;8.268;2022-08-01T03:15:14;26.50;83.10
39237;DHT22;36851;49.996;8.268;2022-08-01T03:17:43;26.60;83.00
39237;DHT22;36851;49.996;8.268;2022-08-01T03:20:11;26.50;83.00
39237;DHT22;36851;49.996;8.268;2022-08-01T03:22:40;26.60;82.90
39237;DHT22;36851;49.996;8.268;2022-08-01T03:25:09;26.60;83.00
39237;DHT22;36851;49.996;8.268;2022-08-01T03:27:38;26.60;82.90
39237;DHT22;36851;49.996;8.268;2022-08-01T03:30:06;26.60;82.80
39237;DHT22;36851;49.996;8.268;2022-08-01T03:32:34;26.50;83.00
39237;DHT22;36851;49.996;8.268;2022-08-01T03:35:01;26.60;82.90
39237;DHT22;36851;49.996;8.268;2022-08-01T03:37:34;26.50;82.90
39237;DHT22;36851;49.996;8.268;2022-08-01T03:40:04;26.60;83.00
39237;DHT22;36851;49.996;8.268;2022-08-01T03:42:34;26.60;82.90
39237;DHT22;36851;49.996;8.268;2022-08-01T03:45:10;26.60;82.70
39237;DHT22;36851;49.996;8.268;2022-08-01T03:47:40;26.60;82.60
39237;DHT22;36851;49.996;8.268;2022-08-01T03:50:11;26.60;82.80
39237;DHT22;36851;49.996;8.268;2022-08-01T03:52:39;26.50;83.00
39237;DHT22;36851;49.996;8.268;2022-08-01T03:55:08;26.40;83.20
39237;DHT22;36851;49.996;8.268;2022-08-01T03:57:38;26.40;83.10
39237;DHT22;36851;49.996;8.268;2022-08-01T04:00:06;26.50;83.10
39237;DHT22;36851;49.996;8.268;2022-08-01T04:02:38;26.50;83.00
39237;DHT22;36851;49.996;8.268;2022-08-01T04:05:06;26.50;82.90
39237;DHT22;36851;49.996;8.268;2022-08-01T04:07:34;26.50;83.20
39237;DHT22;36851;49.996;8.268;2022-08-01T04:10:06;26.30;83.20
39237;DHT22;36851;49.996;8.268;2022-08-01T04:12:33;26.30;83.60
39237;DHT22;36851;49.996;8.268;2022-08-01T04:15:01;26.20;83.90
39237;DHT22;36851;49.996;8.268;2022-08-01T04:17:28;26.10;84.00
39237;DHT22;36851;49.996;8.268;2022-08-01T04:19:55;26.10;84.10
39237;DHT22;36851;49.996;8.268;2022-08-01T04:22:22;26.10;84.10
39237;DHT22;36851;49.996;8.268;2022-08-01T04:24:50;26.30;83.80
39237;DHT22;36851;49.996;8.268;2022-08-01T04:27:24;26.20;83.80
39237;DHT22;36851;49.996;8.268;2022-08-01T04:30:12;26.30;83.70
39237;DHT22;36851;49.996;8.268;2022-08-01T04:32:46;26.30;83.70
39237;DHT22;36851;49.996;8.268;2022-08-01T04:35:14;26.20;83.80
39237;DHT22;36851;49.996;8.268;2022-08-01T04:38:05;26.20;83.90
39237;DHT22;36851;49.996;8.268;2022-08-01T04:40:34;26.20;83.80
39237;DHT22;36851;49.996;8.268;2022-08-01T04:43:02;26.10;84.60
39237;DHT22;36851;49.996;8.268;2022-08-01T04:45:29;25.90;84.50
39237;DHT22;36851;49.996;8.268;2022-08-01T04:47:57;25.80;85.00
39237;DHT22;36851;49.996;8.268;2022-08-01T04:50:25;25.80;85.20
39237;DHT22;36851;49.996;8.268;2022-08-01T04:52:52;25.70;85.40
39237;DHT22;36851;49.996;8.268;2022-08-01T04:55:19;25.60;85.80
39237;DHT22;36851;49.996;8.268;2022-08-01T04:57:48;25.60;85.70
39237;DHT22;36851;49.996;8.268;2022-08-01T05:00:15;25.70;85.70
39237;DHT22;36851;49.996;8.268;2022-08-01T05:02:45;25.60;85.60
39237;DHT22;36851;49.996;8.268;2022-08-01T05:05:13;25.70;85.60
39237;DHT22;36851;49.996;8.268;2022-08-01T05:07:41;25.60;85.70
39237;DHT22;36851;49.996;8.268;2022-08-01T05:10:11;25.70;85.70
39237;DHT22;36851;49.996;8.268;2022-08-01T05:12:38;25.70;85.60
39237;DHT22;36851;49.996;8.268;2022-08-01T05:15:05;25.70;85.60
39237;DHT22;36851;49.996;8.268;2022-08-01T05:17:40;25.60;85.90
39237;DHT22;36851;49.996;8.268;2022-08-01T05:20:11;25.50;86.30
39237;DHT22;36851;49.996;8.268;2022-08-01T05:22:38;25.50;86.40
39237;DHT22;36851;49.996;8.268;2022-08-01T05:25:06;25.40;86.50
39237;DHT22;36851;49.996;8.268;2022-08-01T05:27:33;25.40;86.70
39237;DHT22;36851;49.996;8.268;2022-08-01T05:30:07;25.50;86.50
39237;DHT22;36851;49.996;8.268;2022-08-01T05:32:34;25.40;86.60
39237;DHT22;36851;49.996;8.268;2022-08-01T05:35:02;25.40;86.80
39237;DHT22;36851;49.996;8.268;2022-08-01T05:37:29;25.30;86.80
39237;DHT22;36851;49.996;8.268;2022-08-01T05:39:56;25.40;86.90
39237;DHT22;36851;49.996;8.268;2022-08-01T05:42:23;25.40;87.10
39237;DHT22;36851;49.996;8.268;2022-08-01T05:44:50;25.50;86.80
39237;DHT22;36851;49.996;8.268;2022-08-01T05:47:17;25.60;86.50
39237;DHT22;36851;49.996;8.268;2022-08-01T05:49:45;25.70;86.10
39237;DHT22;36851;49.996;8.268;2022-08-01T05:52:12;25.80;85.90
39237;DHT22;36851;49.996;8.268;2022-08-01T05:54:40;25.90;85.70
39237;DHT22;36851;49.996;8.268;2022-08-01T05:57:07;25.90;85.60
39237;DHT22;36851;49.996;8.268;2022-08-01T05:59:34;26.00;85.50
39237;DHT22;36851;49.996;8.268;2022-08-01T06:02:01;26.00;85.20
39237;DHT22;36851;49.996;8.268;2022-08-01T06:04:28;26.00;85.50
39237;DHT22;36851;49.996;8.268;2022-08-01T06:06:55;25.90;85.80
39237;DHT22;36851;49.996;8.268;2022-08-01T06:09:22;25.90;86.10
39237;DHT22;36851;49.996;8.268;2022-08-01T06:11:49;25.80;86.40
39237;DHT22;36851;49.996;8.268;2022-08-01T06:14:17;25.90;86.60
39237;DHT22;36851;49.996;8.268;2022-08-01T06:16:44;26.00;86.40
39237;DHT22;36851;49.996;8.268;2022-08-01T06:19:11;26.10;86.10
39237;DHT22;36851;49.996;8.268;2022-08-01T06:21:38;26.10;86.10
39237;DHT22;36851;49.996;8.268;2022-08-01T06:24:05;26.20;85.80
39237;DHT22;36851;49.996;8.268;2022-08-01T06:26:32;26.30;85.80
39237;DHT22;36851;49.996;8.268;2022-08-01T06:28:59;26.20;85.90
39237;DHT22;36851;49.996;8.268;2022-08-01T06:31:26;26.20;86.10
39237;DHT22;36851;49.996;8.268;2022-08-01T06:33:59;26.20;86.20
39237;DHT22;36851;49.996;8.268;2022-08-01T06:36:26;26.30;86.10
39237;DHT22;36851;49.996;8.268;2022-08-01T06:38:53;26.30;86.00
39237;DHT22;36851;49.996;8.268;2022-08-01T06:41:20;26.30;86.40
39237;DHT22;36851;49.996;8.268;2022-08-01T06:43:48;26.40;86.40
39237;DHT22;36851;49.996;8.268;2022-08-01T06:46:15;26.30;86.50
39237;DHT22;36851;49.996;8.268;2022-08-01T06:48:42;26.40;86.40
39237;DHT22;36851;49.996;8.268;2022-08-01T06:51:09;26.50;86.30
39237;DHT22;36851;49.996;8.268;2022-08-01T06:53:40;26.50;86.00
39237;DHT22;36851;49.996;8.268;2022-08-01T06:56:09;26.50;86.30
39237;DHT22;36851;49.996;8.268;2022-08-01T06:58:37;26.50;86.30
39237;DHT22;36851;49.996;8.268;2022-08-01T07:01:04;26.50;85.90
39237;DHT22;36851;49.996;8.268;2022-08-01T07:03:33;26.50;86.30
39237;DHT22;36851;49.996;8.268;2022-08-01T07:06:24;26.50;86.20
39237;DHT22;36851;49.996;8.268;2022-08-01T07:08:52;26.50;86.40
39237;DHT22;36851;49.996;8.268;2022-08-01T07:11:19;26.30;86.40
39237;DHT22;36851;49.996;8.268;2022-08-01T07:13:47;26.30;86.50
39237;DHT22;36851;49.996;8.268;2022-08-01T07:16:14;26.30;86.50
39237;DHT22;36851;49.996;8.268;2022-08-01T07:18:42;26.30;86.70
39237;DHT22;36851;49.996;8.268;2022-08-01T07:21:09;26.30;86.40
39237;DHT22;36851;49.996;8.268;2022-08-01T07:23:56;26.30;86.40
39237;DHT22;36851;49.996;8.268;2022-08-01T07:26:25;26.30;86.80
39237;DHT22;36851;49.996;8.268;2022-08-01T07:28:53;26.40;86.70
39237;DHT22;36851;49.996;8.268;2022-08-01T07:31:20;26.40;86.40
39237;DHT22;36851;49.996;8.268;2022-08-01T07:33:47;26.40;86.60
39237;DHT22;36851;49.996;8.268;2022-08-01T07:36:16;26.40;86.30
39237;DHT22;36851;49.996;8.268;2022-08-01T07:38:43;26.40;86.40
39237;DHT22;36851;49.996;8.268;2022-08-01T07:41:10;26.40;86.70
39237;DHT22;36851;49.996;8.268;2022-08-01T07:43:38;26.50;86.80
39237;DHT22;36851;49.996;8.268;2022-08-01T07:46:05;26.40;86.70
39237;DHT22;36851;49.996;8.268;2022-08-01T07:48:32;26.40;87.60
39237;DHT22;36851;49.996;8.268;2022-08-01T07:50:59;26.50;87.60
39237;DHT22;36851;49.996;8.268;2022-08-01T07:53:26;26.40;87.00
39237;DHT22;36851;49.996;8.268;2022-08-01T07:55:53;26.20;87.20
39237;DHT22;36851;49.996;8.268;2022-08-01T07:58:21;26.30;87.40
39237;DHT22;36851;49.996;8.268;2022-08-01T08:00:48;26.20;87.60
39237;DHT22;36851;49.996;8.268;2022-08-01T08:03:15;26.30;88.30
39237;DHT22;36851;49.996;8.268;2022-08-01T08:05:42;26.40;87.90
39237;DHT22;36851;49.996;8.268;2022-08-01T08:08:26;26.40;87.40
39237;DHT22;36851;49.996;8.268;2022-08-01T08:10:53;26.40;86.90
39237;DHT22;36851;49.996;8.268;2022-08-01T08:13:20;26.40;86.70
39237;DHT22;36851;49.996;8.268;2022-08-01T08:15:47;26.40;86.60
39237;DHT22;36851;49.996;8.268;2022-08-01T08:18:15;26.40;86.80
39237;DHT22;36851;49.996;8.268;2022-08-01T08:20:42;26.40;87.60
39237;DHT22;36851;49.996;8.268;2022-08-01T08:23:09;26.30;87.10
39237;DHT22;36851;49.996;8.268;2022-08-01T08:26:12;26.30;87.90
39237;DHT22;36851;49.996;8.268;2022-08-01T08:28:39;26.30;87.60
39237;DHT22;36851;49.996;8.268;2022-08-01T08:31:07;26.30;88.90
39237;DHT22;36851;49.996;8.268;2022-08-01T08:33:55;26.30;88.90
39237;DHT22;36851;49.996;8.268;2022-08-01T08:36:22;26.30;89.20
39237;DHT22;36851;49.996;8.268;2022-08-01T08:38:57;26.30;88.80
39237;DHT22;36851;49.996;8.268;2022-08-01T08:41:28;26.30;89.00
39237;DHT22;36851;49.996;8.268;2022-08-01T08:44:05;26.30;88.90
39237;DHT22;36851;49.996;8.268;2022-08-01T08:46:43;26.30;90.00
39237;DHT22;36851;49.996;8.268;2022-08-01T08:49:12;26.30;90.00
39237;DHT22;36851;49.996;8.268;2022-08-01T08:51:39;26.40;90.00
39237;DHT22;36851;49.996;8.268;2022-08-01T08:54:10;26.30;89.30
39237;DHT22;36851;49.996;8.268;2022-08-01T08:56:37;26.30;89.80
39237;DHT22;36851;49.996;8.268;2022-08-01T08:59:04;26.40;90.00
39237;DHT22;36851;49.996;8.268;2022-08-01T09:01:32;26.40;90.10
39237;DHT22;36851;49.996;8.268;2022-08-01T09:04:03;26.40;90.20
39237;DHT22;36851;49.996;8.268;2022-08-01T09:06:30;26.40;90.10
39237;DHT22;36851;49.996;8.268;2022-08-01T09:08:58;26.40;90.20
39237;DHT22;36851;49.996;8.268;2022-08-01T09:11:26;26.40;90.20
39237;DHT22;36851;49.996;8.268;2022-08-01T09:14:04;26.40;91.00
39237;DHT22;36851;49.996;8.268;2022-08-01T09:16:32;26.40;90.70
39237;DHT22;36851;49.996;8.268;2022-08-01T09:19:08;26.40;90.70
39237;DHT22;36851;49.996;8.268;2022-08-01T09:24:25;26.40;91.00
39237;DHT22;36851;49.996;8.268;2022-08-01T09:26:57;26.40;90.40
39237;DHT22;36851;49.996;8.268;2022-08-01T09:29:27;26.40;90.60
39237;DHT22;36851;49.996;8.268;2022-08-01T09:32:07;26.40;90.40
39237;DHT22;36851;49.996;8.268;2022-08-01T09:34:42;26.50;90.70
39237;DHT22;36851;49.996;8.268;2022-08-01T09:37:09;26.50;91.20
39237;DHT22;36851;49.996;8.268;2022-08-01T09:39:40;26.50;91.20
39237;DHT22;36851;49.996;8.268;2022-08-01T09:42:23;26.60;91.00
39237;DHT22;36851;49.996;8.268;2022-08-01T09:44:55;26.60;92.00
39237;DHT22;36851;49.996;8.268;2022-08-01T09:47:23;26.70;92.40
39237;DHT22;36851;49.996;8.268;2022-08-01T09:50:05;26.70;93.00
39237;DHT22;36851;49.996;8.268;2022-08-01T09:52:40;26.70;93.50
39237;DHT22;36851;49.996;8.268;2022-08-01T09:55:08;26.80;91.90
39237;DHT22;36851;49.996;8.268;2022-08-01T09:57:35;26.70;92.30
39237;DHT22;36851;49.996;8.268;2022-08-01T10:00:02;26.70;91.70
39237;DHT22;36851;49.996;8.268;2022-08-01T10:02:39;26.70;91.00
39237;DHT22;36851;49.996;8.268;2022-08-01T10:05:10;26.70;91.70
39237;DHT22;36851;49.996;8.268;2022-08-01T10:08:00;26.70;90.80
39237;DHT22;36851;49.996;8.268;2022-08-01T10:10:34;26.70;91.30
39237;DHT22;36851;49.996;8.268;2022-08-01T10:13:03;26.70;90.30
39237;DHT22;36851;49.996;8.268;2022-08-01T10:15:31;26.60;90.50
39237;DHT22;36851;49.996;8.268;2022-08-01T10:18:04;26.70;91.00
39237;DHT22;36851;49.996;8.268;2022-08-01T10:20:47;26.80;90.60
39237;DHT22;36851;49.996;8.268;2022-08-01T10:23:14;26.80;90.30
39237;DHT22;36851;49.996;8.268;2022-08-01T10:25:43;26.80;90.10
39237;DHT22;36851;49.996;8.268;2022-08-01T10:28:14;26.80;89.70
39237;DHT22;36851;49.996;8.268;2022-08-01T10:30:47;26.80;89.00
39237;DHT22;36851;49.996;8.268;2022-08-01T10:33:15;26.80;88.20
39237;DHT22;36851;49.996;8.268;2022-08-01T10:36:02;26.80;88.70
39237;DHT22;36851;49.996;8.268;2022-08-01T10:38:35;26.80;88.40
39237;DHT22;36851;49.996;8.268;2022-08-01T10:41:03;26.70;86.80
39237;DHT22;36851;49.996;8.268;2022-08-01T10:43:34;26.70;86.40
39237;DHT22;36851;49.996;8.268;2022-08-01T10:46:03;26.60;86.90
39237;DHT22;36851;49.996;8.268;2022-08-01T10:50:58;26.70;86.40
39237;DHT22;36851;49.996;8.268;2022-08-01T10:53:27;26.70;86.50
39237;DHT22;36851;49.996;8.268;2022-08-01T10:56:08;26.70;86.40
39237;DHT22;36851;49.996;8.268;2022-08-01T10:58:39;26.80;86.00
39237;DHT22;36851;49.996;8.268;2022-08-01T11:01:27;26.70;84.50
39237;DHT22;36851;49.996;8.268;2022-08-01T11:06:35;26.70;85.40
39237;DHT22;36851;49.996;8.268;2022-08-01T11:09:19;26.70;86.20
39237;DHT22;36851;49.996;8.268;2022-08-01T11:11:57;26.70;84.70
39237;DHT22;36851;49.996;8.268;2022-08-01T11:14:27;26.70;85.60
39237;DHT22;36851;49.996;8.268;2022-08-01T11:17:33;26.70;84.60
39237;DHT22;36851;49.996;8.268;2022-08-01T11:22:31;26.70;84.60
39237;DHT22;36851;49.996;8.268;2022-08-01T11:24:58;26.70;85.10
39237;DHT22;36851;49.996;8.268;2022-08-01T11:27:28;26.80;86.20
39237;DHT22;36851;49.996;8.268;2022-08-01T11:32:49;26.90;86.20
39237;DHT22;36851;49.996;8.268;2022-08-01T11:35:37;26.80;85.80
39237;DHT22;36851;49.996;8.268;2022-08-01T11:38:23;26.90;86.40
39237;DHT22;36851;49.996;8.268;2022-08-01T11:52:23;26.90;85.50
39237;DHT22;36851;49.996;8.268;2022-08-01T11:54:45;27.00;85.50
39237;DHT22;36851;49.996;8.268;2022-08-01T11:57:14;27.00;84.60
39237;DHT22;36851;49.996;8.268;2022-08-01T11:59:42;27.00;84.10
39237;DHT22;36851;49.996;8.268;2022-08-01T12:02:38;26.90;83.70
39237;DHT22;36851;49.996;8.268;2022-08-01T12:05:09;26.90;83.70
39237;DHT22;36851;49.996;8.268;2022-08-01T12:07:40;26.90;84.60
39237;DHT22;36851;49.996;8.268;2022-08-01T12:10:12;27.00;83.80
39237;DHT22;36851;49.996;8.268;2022-08-01T12:12:49;27.00;83.80
39237;DHT22;36851;49.996;8.268;2022-08-01T12:15:17;27.00;83.40
39237;DHT22;36851;49.996;8.268;2022-08-01T12:17:46;27.00;83.60
39237;DHT22;36851;49.996;8.268;2022-08-01T12:20:26;27.00;83.50
39237;DHT22;36851;49.996;8.268;2022-08-01T12:22:57;27.00;83.90
39237;DHT22;36851;49.996;8.268;2022-08-01T12:25:25;27.00;83.50
39237;DHT22;36851;49.996;8.268;2022-08-01T12:27:52;27.00;82.90
39237;DHT22;36851;49.996;8.268;2022-08-01T12:30:23;27.00;82.50
39237;DHT22;36851;49.996;8.268;2022-08-01T12:32:52;26.90;83.30
39237;DHT22;36851;49.996;8.268;2022-08-01T12:35:20;27.00;82.80
39237;DHT22;36851;49.996;8.268;2022-08-01T12:37:56;27.00;82.90
39237;DHT22;36851;49.996;8.268;2022-08-01T12:40:34;26.90;83.60
39237;DHT22;36851;49.996;8.268;2022-08-01T12:43:02;27.00;83.60
39237;DHT22;36851;49.996;8.268;2022-08-01T12:45:31;26.90;85.20
39237;DHT22;36851;49.996;8.268;2022-08-01T12:47:59;27.00;86.00
39237;DHT22;36851;49.996;8.268;2022-08-01T12:50:28;27.00;84.30
39237;DHT22;36851;49.996;8.268;2022-08-01T12:52:57;27.00;84.50
39237;DHT22;36851;49.996;8.268;2022-08-01T12:55:24;27.00;84.50
39237;DHT22;36851;49.996;8.268;2022-08-01T12:58:07;27.00;85.60
39237;DHT22;36851;49.996;8.268;2022-08-01T13:00:42;27.00;85.40
39237;DHT22;36851;49.996;8.268;2022-08-01T13:03:12;27.00;84.10
39237;DHT22;36851;49.996;8.268;2022-08-01T13:08:13;27.10;85.60
39237;DHT22;36851;49.996;8.268;2022-08-01T13:10:40;27.10;85.40
39237;DHT22;36851;49.996;8.268;2022-08-01T13:13:08;27.10;85.20
39237;DHT22;36851;49.996;8.268;2022-08-01T13:15:36;27.20;85.50
39237;DHT22;36851;49.996;8.268;2022-08-01T13:18:26;27.10;85.50
39237;DHT22;36851;49.996;8.268;2022-08-01T13:21:07;27.10;84.20
39237;DHT22;36851;49.996;8.268;2022-08-01T13:23:34;27.20;82.80
39237;DHT22;36851;49.996;8.268;2022-08-01T13:26:36;27.20;82.90
39237;DHT22;36851;49.996;8.268;2022-08-01T13:29:04;27.20;83.00
39237;DHT22;36851;49.996;8.268;2022-08-01T13:31:32;27.20;82.30
39237;DHT22;36851;49.996;8.268;2022-08-01T13:34:00;27.20;82.80
39237;DHT22;36851;49.996;8.268;2022-08-01T13:36:27;27.20;83.00
39237;DHT22;36851;49.996;8.268;2022-08-01T13:38:55;27.20;83.10
39237;DHT22;36851;49.996;8.268;2022-08-01T13:41:41;27.20;83.10
39237;DHT22;36851;49.996;8.268;2022-08-01T13:44:08;27.20;83.60
39237;DHT22;36851;49.996;8.268;2022-08-01T13:46:37;27.20;84.50
39237;DHT22;36851;49.996;8.268;2022-08-01T13:49:15;27.20;84.10
39237;DHT22;36851;49.996;8.268;2022-08-01T13:51:44;27.20;83.90
39237;DHT22;36851;49.996;8.268;2022-08-01T13:54:13;27.20;83.50
39237;DHT22;36851;49.996;8.268;2022-08-01T13:56:40;27.20;84.40
39237;DHT22;36851;49.996;8.268;2022-08-01T13:59:07;27.20;83.60
39237;DHT22;36851;49.996;8.268;2022-08-01T14:01:34;27.30;83.20
39237;DHT22;36851;49.996;8.268;2022-08-01T14:04:02;27.30;84.20
39237;DHT22;36851;49.996;8.268;2022-08-01T14:06:29;27.30;83.30
39237;DHT22;36851;49.996;8.268;2022-08-01T14:08:57;27.30;84.40
39237;DHT22;36851;49.996;8.268;2022-08-01T14:11:25;27.40;84.00
39237;DHT22;36851;49.996;8.268;2022-08-01T14:13:56;27.40;84.50
39237;DHT22;36851;49.996;8.268;2022-08-01T14:16:23;27.40;84.30
39237;DHT22;36851;49.996;8.268;2022-08-01T14:18:50;27.40;83.60
39237;DHT22;36851;49.996;8.268;2022-08-01T14:21:18;27.40;82.80
39237;DHT22;36851;49.996;8.268;2022-08-01T14:23:46;27.40;82.90
39237;DHT22;36851;49.996;8.268;2022-08-01T14:26:13;27.30;84.20
39237;DHT22;36851;49.996;8.268;2022-08-01T14:28:40;27.30;84.00
39237;DHT22;36851;49.996;8.268;2022-08-01T14:31:07;27.40;84.30
39237;DHT22;36851;49.996;8.268;2022-08-01T14:33:34;27.30;84.50
39237;DHT22;36851;49.996;8.268;2022-08-01T14:36:02;27.30;83.90
39237;DHT22;36851;49.996;8.268;2022-08-01T14:38:49;27.30;83.70
39237;DHT22;36851;49.996;8.268;2022-08-01T14:41:16;27.30;84.00
39237;DHT22;36851;49.996;8.268;2022-08-01T14:43:43;27.30;83.80
39237;DHT22;36851;49.996;8.268;2022-08-01T14:46:11;27.30;83.70
39237;DHT22;36851;49.996;8.268;2022-08-01T14:48:39;27.20;83.10
39237;DHT22;36851;49.996;8.268;2022-08-01T14:51:06;27.20;83.30
39237;DHT22;36851;49.996;8.268;2022-08-01T14:53:34;27.20;83.50
39237;DHT22;36851;49.996;8.268;2022-08-01T14:56:05;27.20;83.60
39237;DHT22;36851;49.996;8.268;2022-08-01T14:58:32;27.20;83.20
39237;DHT22;36851;49.996;8.268;2022-08-01T15:01:00;27.20;83.80
39237;DHT22;36851;49.996;8.268;2022-08-01T15:03:27;27.20;83.50
39237;DHT22;36851;49.996;8.268;2022-08-01T15:05:54;27.20;83.50
39237;DHT22;36851;49.996;8.268;2022-08-01T15:08:21;27.20;83.30
39237;DHT22;36851;49.996;8.268;2022-08-01T15:10:48;27.20;83.30
39237;DHT22;36851;49.996;8.268;2022-08-01T15:13:15;27.20;83.40
39237;DHT22;36851;49.996;8.268;2022-08-01T15:15:42;27.30;83.50
39237;DHT22;36851;49.996;8.268;2022-08-01T15:18:10;27.30;83.40
39237;DHT22;36851;49.996;8.268;2022-08-01T15:20:37;27.30;83.50
39237;DHT22;36851;49.996;8.268;2022-08-01T15:23:04;27.30;83.50
39237;DHT22;36851;49.996;8.268;2022-08-01T15:25:31;27.30;83.30
39237;DHT22;36851;49.996;8.268;2022-08-01T15:28:09;27.30;82.90
39237;DHT22;36851;49.996;8.268;2022-08-01T15:30:37;27.30;83.20
39237;DHT22;36851;49.996;8.268;2022-08-01T15:33:04;27.30;83.40
39237;DHT22;36851;49.996;8.268;2022-08-01T15:35:32;27.30;83.20
39237;DHT22;36851;49.996;8.268;2022-08-01T15:37:59;27.30;83.00
39237;DHT22;36851;49.996;8.268;2022-08-01T15:40:26;27.30;83.20
39237;DHT22;36851;49.996;8.268;2022-08-01T15:42:55;27.30;83.30
39237;DHT22;36851;49.996;8.268;2022-08-01T15:45:22;27.30;83.20
39237;DHT22;36851;49.996;8.268;2022-08-01T15:48:09;27.30;83.20
39237;DHT22;36851;49.996;8.268;2022-08-01T15:50:37;27.30;83.30
39237;DHT22;36851;49.996;8.268;2022-08-01T15:53:05;27.30;83.10
39237;DHT22;36851;49.996;8.268;2022-08-01T15:55:35;27.30;83.00
39237;DHT22;36851;49.996;8.268;2022-08-01T15:58:04;27.30;82.90
39237;DHT22;36851;49.996;8.268;2022-08-01T16:00:33;27.30;83.20
39237;DHT22;36851;49.996;8.268;2022-08-01T16:03:08;27.30;83.40
39237;DHT22;36851;49.996;8.268;2022-08-01T16:05:36;27.30;84.30
39237;DHT22;36851;49.996;8.268;2022-08-01T16:08:10;27.30;84.30
39237;DHT22;36851;49.996;8.268;2022-08-01T16:10:37;27.30;84.40
39237;DHT22;36851;49.996;8.268;2022-08-01T16:13:05;27.30;85.10
39237;DHT22;36851;49.996;8.268;2022-08-01T16:15:36;27.30;85.20
39237;DHT22;36851;49.996;8.268;2022-08-01T16:18:04;27.30;85.40
39237;DHT22;36851;49.996;8.268;2022-08-01T16:20:32;27.30;85.60
39237;DHT22;36851;49.996;8.268;2022-08-01T16:22:59;27.30;86.00
39237;DHT22;36851;49.996;8.268;2022-08-01T16:25:26;27.30;86.10
39237;DHT22;36851;49.996;8.268;2022-08-01T16:27:53;27.30;86.00